UNNT/OVB METAR and TAF weather

Enter ICAO airport designator
Station Type Date Time Source
UNNT METAR 2018/12/19 03:30 UTC NOAA

UNNT 190330Z 22007MPS 7000 -SN DRSN OVC028 M11/M13 Q1015 R25/450242 R16/490150 NOSIG RMK QFE751/1002


Station Type Date Time Source
UNNT Decoded METAR 2018/12/19 03:30 UTC NOAA

Station name not available
Dec 18, 2018 - 10:30 PM EST / 2018.12.19 0330 UTC
Wind: from the SW (220 degrees) at 16 MPH (14 KT):0
Visibility: 4 mile(s):0
Sky conditions: overcast
Weather: light snow; low drifting snow
Temperature: 12 F (-11 C)
Windchill: -4 F (-20 C):1
Dew Point: 8 F (-13 C)
Relative Humidity: 85%
Pressure (altimeter): 29.97 in. Hg (1015 hPa)
ob: UNNT 190330Z 22007MPS 7000 -SN DRSN OVC028 M11/M13 Q1015 R25/450242 R16/490150 NOSIG RMK QFE751/1002
cycle: 3

Station Type Date Time Source
UNNT TAF 2018/12/19 03:21 UTC NOAA

TAF UNNT 190200Z 1903/2003 24008G15MPS 3100 -SHSN DRSN BKN011CB
TEMPO 1903/1915 0800 +SHSN BLSN BKN005 BKN011CB
BECMG 1915/1917 30006G12MPS


Example: see airport list